INFORMACIÓN METAR y TAF
METAR FOR LEGE
ADDS - METARS form results

(1154 UTC 10 August 2020)
Data provider http://aviationweather.gov/metar/data/
 
METAR text: LEGE 101130Z 18010KT 140V220 CAVOK 33/18 Q1013
Conditions at: LEGE (GERONA/COSTA BRA, ES) observed 1130 UTC 10 August 2020
Temperature: 33.0°C (91°F)
Dewpoint: 18.0°C (64°F) [RH = 41%]
Pressure (altimeter): 29.91 inches Hg (1013.0 mb)
Winds: from the S (180 degrees) at 12 MPH (10 knots; 5.1 m/s)
Visibility: 6 or more miles (10+ km)
Ceiling: ceiling and visibility are OK
Clouds: unknown
Weather: no significant weather observed at this time

METAR text: LEGE 101100Z 20005KT 140V280 CAVOK 32/15 Q1014
Conditions at: LEGE (GERONA/COSTA BRA, ES) observed 1100 UTC 10 August 2020
Temperature: 32.0°C (90°F)
Dewpoint: 15.0°C (59°F) [RH = 36%]
Pressure (altimeter): 29.94 inches Hg (1014.0 mb)
Winds: from the SSW (200 degrees) at 6 MPH (5 knots; 2.6 m/s)
Visibility: 6 or more miles (10+ km)
Ceiling: ceiling and visibility are OK
Clouds: unknown
Weather: no significant weather observed at this time

Forecast for: LEGE (GERONA/COSTA BRA, ES)
Text: TAF LEGE 101100Z 1012/1112 18015KT 9999 FEW045 TX37/1013Z TN19/1105Z
Forecast period: 1200 to 1900 UTC 10 August 2020
Forecast type: FROM: standard forecast or significant change
Winds: from the S (180 degrees) at 17 MPH (15 knots; 7.7 m/s)
Visibility: 6 or more miles (10+ km)
Ceiling: at least 12,000 feet AGL
Clouds: few clouds at 4500 feet AGL
Weather: no significant weather forecast for this period
Text: BECMG 1019/1021 VRB04KT
Forecast period: 1900 UTC 10 August 2020 to 0700 UTC 11 August 2020
Forecast type: BECOMING: Conditions expected to become as follows by 2100 UTC 10 August 2020
Winds: variable direction winds at 5 MPH (4 knots; 2.1 m/s)
Visibility: 6 or more miles (10+ km)
Ceiling: at least 12,000 feet AGL
Clouds: few clouds at 4500 feet AGL
Weather: no significant weather forecast for this period
Text: BECMG 1107/1109 18010KT
Forecast period: 0700 to 1200 UTC 11 August 2020
Forecast type: BECOMING: Conditions expected to become as follows by 0900 UTC 11 August 2020
Winds: from the S (180 degrees) at 12 MPH (10 knots; 5.1 m/s)
Visibility: 6 or more miles (10+ km)
Ceiling: at least 12,000 feet AGL
Clouds: few clouds at 4500 feet AGL
Weather: no significant weather forecast for this period

MAPA DE AEROPUERTO

INFORMACIÓN DE PISTA
Pista 02 Longitud 7874 ft Ancho 148 ft
Elevación 403 ft Umbral desplazado 0 ft Rumbo de pista 16
Pista 20 Longitud 7874 ft Ancho 148 ft
Elevación 468 ft Umbral desplazado 0 ft Rumbo de pista 196

FRECUANCIAS DEL AEROPUERTO
Tipo APP Nombre APP Frecuencia 120.9 MHZ
Tipo GND Nombre GND Frecuencia 121.7 MHZ
Tipo TWR Nombre TWR Frecuencia 118.5 MHZ

RADIO AYUDAS DEL AEROPUERTO
Tipo VOR-DME Nombre Gerona Frecuencia 114100 KHZ
Tipo NDB Nombre Gerona Frecuencia 412 KHZ